createdAt,value
2022-10-29T00:00:12.574Z,16.80
2022-10-29T00:02:40.746Z,16.90
2022-10-29T00:05:09.552Z,16.90
2022-10-29T00:07:37.466Z,16.90
2022-10-29T00:10:05.960Z,17.00
2022-10-29T00:12:33.921Z,17.00
2022-10-29T00:15:03.309Z,17.00
2022-10-29T00:17:31.161Z,17.00
2022-10-29T00:19:59.046Z,17.00
2022-10-29T00:22:27.147Z,17.00
2022-10-29T00:24:54.988Z,17.00
2022-10-29T00:27:22.895Z,17.00
2022-10-29T00:29:50.808Z,17.00
2022-10-29T00:32:20.120Z,17.00
2022-10-29T00:34:48.034Z,17.00
2022-10-29T00:37:15.967Z,17.00
2022-10-29T00:39:43.878Z,17.00
2022-10-29T00:42:15.246Z,17.00
2022-10-29T00:44:43.724Z,17.00
2022-10-29T00:47:24.900Z,17.00
2022-10-29T00:49:57.085Z,17.00
2022-10-29T00:52:28.661Z,16.90
2022-10-29T00:54:57.017Z,16.90
2022-10-29T00:57:29.363Z,16.90
2022-10-29T00:59:57.422Z,16.90
2022-10-29T01:02:27.911Z,16.90
2022-10-29T01:04:56.339Z,16.90
2022-10-29T01:07:25.145Z,17.00
2022-10-29T01:09:53.075Z,16.90
2022-10-29T01:12:35.929Z,16.90
2022-10-29T01:15:17.047Z,16.90
2022-10-29T01:18:03.047Z,16.90
2022-10-29T01:21:00.547Z,16.80
2022-10-29T01:23:58.630Z,16.70
2022-10-29T01:26:48.875Z,16.70
2022-10-29T01:29:35.374Z,16.70
2022-10-29T01:32:09.059Z,16.70
2022-10-29T01:34:43.633Z,16.60
2022-10-29T01:37:21.056Z,16.60
2022-10-29T01:39:56.201Z,16.60
2022-10-29T01:42:30.632Z,16.60
2022-10-29T01:45:12.049Z,16.60
2022-10-29T01:47:45.398Z,16.60
2022-10-29T01:50:16.596Z,16.60
2022-10-29T01:52:45.854Z,16.60
2022-10-29T01:55:17.362Z,16.60
2022-10-29T01:57:45.340Z,16.60
2022-10-29T02:00:15.957Z,16.60
2022-10-29T02:02:56.276Z,16.60
2022-10-29T02:05:33.059Z,16.50
2022-10-29T02:08:13.315Z,16.50
2022-10-29T02:10:48.786Z,16.50
2022-10-29T02:13:20.305Z,16.50
2022-10-29T02:15:51.182Z,16.40
2022-10-29T02:18:20.873Z,16.40
2022-10-29T02:20:49.253Z,16.30
2022-10-29T02:23:17.426Z,16.30
2022-10-29T02:25:45.381Z,16.30
2022-10-29T02:28:13.382Z,16.30
2022-10-29T02:30:41.320Z,16.30
2022-10-29T02:33:09.162Z,16.20
2022-10-29T02:35:38.392Z,16.20
2022-10-29T02:38:06.250Z,16.20
2022-10-29T02:40:34.100Z,16.20
2022-10-29T02:43:01.960Z,16.10
2022-10-29T02:45:29.878Z,16.10
2022-10-29T02:47:58.167Z,16.10
2022-10-29T02:50:26.251Z,16.10
2022-10-29T02:52:55.498Z,16.00
2022-10-29T02:55:23.386Z,16.00
2022-10-29T02:57:51.228Z,16.00
2022-10-29T03:00:19.458Z,16.00
2022-10-29T03:02:47.339Z,16.00
2022-10-29T03:05:15.370Z,16.00
2022-10-29T03:07:43.214Z,15.90
2022-10-29T03:10:12.598Z,15.90
2022-10-29T03:12:40.411Z,15.80
2022-10-29T03:15:09.210Z,15.80
2022-10-29T03:17:37.053Z,15.80
2022-10-29T03:20:05.719Z,15.70
2022-10-29T03:22:33.598Z,15.70
2022-10-29T03:25:01.443Z,15.70
2022-10-29T03:27:30.639Z,15.70
2022-10-29T03:29:58.485Z,15.60
2022-10-29T03:32:26.340Z,15.60
2022-10-29T03:34:57.439Z,15.50
2022-10-29T03:37:27.774Z,15.50
2022-10-29T03:39:55.693Z,15.50
2022-10-29T03:42:23.645Z,15.50
2022-10-29T03:44:52.848Z,15.40
2022-10-29T03:47:20.749Z,15.40
2022-10-29T03:49:48.603Z,15.40
2022-10-29T03:52:16.490Z,15.40
2022-10-29T03:54:44.458Z,15.30
2022-10-29T03:57:12.326Z,15.30
2022-10-29T03:59:40.308Z,15.30
2022-10-29T04:02:10.327Z,15.30
2022-10-29T04:04:38.352Z,15.30
2022-10-29T04:07:06.476Z,15.30
2022-10-29T04:09:34.381Z,15.30
2022-10-29T04:12:02.250Z,15.30
2022-10-29T04:14:30.190Z,15.30
2022-10-29T04:16:59.220Z,15.30
2022-10-29T04:19:28.394Z,15.30
2022-10-29T04:24:48.696Z,15.30
2022-10-29T04:30:20.631Z,15.40
2022-10-29T04:32:48.530Z,15.40
2022-10-29T04:35:32.642Z,15.40
2022-10-29T04:38:00.502Z,15.40
2022-10-29T04:40:28.327Z,15.40
2022-10-29T04:42:56.446Z,15.40
2022-10-29T04:45:24.605Z,15.50
2022-10-29T04:48:00.048Z,15.50
2022-10-29T04:50:28.555Z,15.50
2022-10-29T04:53:00.727Z,15.50
2022-10-29T04:55:29.491Z,15.60
2022-10-29T04:57:58.282Z,15.60
2022-10-29T05:00:26.357Z,15.60
2022-10-29T05:02:54.924Z,15.60
2022-10-29T05:05:23.091Z,15.60
2022-10-29T05:07:50.950Z,15.60
2022-10-29T05:10:20.483Z,15.60
2022-10-29T05:12:48.359Z,15.60
2022-10-29T05:15:16.230Z,15.60
2022-10-29T05:17:44.061Z,15.50
2022-10-29T05:20:12.627Z,15.60
2022-10-29T05:22:40.605Z,15.50
2022-10-29T05:25:08.909Z,15.60
2022-10-29T05:27:38.144Z,15.50
2022-10-29T05:30:07.217Z,15.60
2022-10-29T05:35:03.986Z,15.60
2022-10-29T05:37:31.907Z,15.60
2022-10-29T05:39:59.763Z,15.60
2022-10-29T05:42:27.590Z,15.50
2022-10-29T05:44:56.810Z,15.50
2022-10-29T05:47:24.765Z,15.50
2022-10-29T05:49:52.622Z,15.50
2022-10-29T05:52:20.483Z,15.50
2022-10-29T05:54:48.384Z,15.50
2022-10-29T05:57:16.281Z,15.50
2022-10-29T05:59:44.159Z,15.50
2022-10-29T06:02:14.586Z,15.50
2022-10-29T06:04:42.564Z,15.50
2022-10-29T06:07:10.423Z,15.50
2022-10-29T06:09:38.346Z,15.50
2022-10-29T06:12:07.113Z,15.50
2022-10-29T06:14:34.965Z,15.50
2022-10-29T06:17:02.978Z,15.50
2022-10-29T06:19:32.247Z,15.50
2022-10-29T06:22:00.690Z,15.50
2022-10-29T06:24:28.937Z,15.60
2022-10-29T06:26:56.827Z,15.60
2022-10-29T06:29:24.692Z,15.50
2022-10-29T06:31:52.562Z,15.60
2022-10-29T06:34:20.426Z,15.50
2022-10-29T06:36:49.867Z,15.60
2022-10-29T06:39:17.752Z,15.50
2022-10-29T06:41:45.643Z,15.60
2022-10-29T06:44:13.523Z,15.60
2022-10-29T06:46:41.607Z,15.50
2022-10-29T06:49:09.443Z,15.50
2022-10-29T06:51:37.320Z,15.50
2022-10-29T06:54:06.654Z,15.60
2022-10-29T06:56:34.579Z,15.60
2022-10-29T06:59:02.577Z,15.60
2022-10-29T07:01:33.047Z,15.60
2022-10-29T07:04:01.107Z,15.60
2022-10-29T07:06:29.599Z,15.60
2022-10-29T07:08:57.507Z,15.60
2022-10-29T07:11:26.799Z,15.60
2022-10-29T07:13:54.697Z,15.70
2022-10-29T07:16:22.594Z,15.70
2022-10-29T07:18:50.488Z,15.70
2022-10-29T07:21:18.371Z,15.70
2022-10-29T07:23:46.271Z,15.70
2022-10-29T07:26:14.252Z,15.80
2022-10-29T07:28:43.453Z,15.80
2022-10-29T07:31:11.379Z,15.80
2022-10-29T07:33:39.240Z,15.90
2022-10-29T07:36:07.920Z,16.00
2022-10-29T07:38:35.960Z,16.00
2022-10-29T07:41:03.831Z,16.10
2022-10-29T07:43:31.750Z,16.20
2022-10-29T07:46:00.982Z,16.20
2022-10-29T07:48:28.824Z,16.30
2022-10-29T07:50:59.482Z,16.40
2022-10-29T07:53:27.491Z,16.50
2022-10-29T07:55:55.853Z,16.50
2022-10-29T07:58:24.817Z,16.60
2022-10-29T08:00:52.948Z,16.60
2022-10-29T08:03:22.225Z,16.60
2022-10-29T08:05:55.425Z,16.70
2022-10-29T08:08:24.604Z,16.70
2022-10-29T08:10:52.478Z,16.80
2022-10-29T08:13:20.386Z,16.80
2022-10-29T08:15:48.397Z,16.90
2022-10-29T08:18:18.000Z,17.00
2022-10-29T08:20:47.235Z,17.00
2022-10-29T08:23:15.394Z,17.00
2022-10-29T08:25:43.750Z,17.10
2022-10-29T08:28:13.136Z,17.10
2022-10-29T08:30:41.813Z,17.20
2022-10-29T08:33:11.600Z,17.20
2022-10-29T08:35:39.469Z,17.20
2022-10-29T08:38:08.748Z,17.30
2022-10-29T08:40:44.507Z,17.40
2022-10-29T08:43:48.021Z,17.40
2022-10-29T08:46:21.839Z,17.50
2022-10-29T08:48:54.800Z,17.50
2022-10-29T08:51:26.776Z,17.60
2022-10-29T08:56:50.216Z,17.70
2022-10-29T08:59:21.729Z,17.70
2022-10-29T09:01:49.867Z,17.70
2022-10-29T09:04:25.585Z,17.70
2022-10-29T09:07:10.858Z,17.90
2022-10-29T09:09:45.501Z,18.00
2022-10-29T09:12:42.030Z,18.10
2022-10-29T09:15:35.712Z,18.20
2022-10-29T09:18:17.208Z,18.50
2022-10-29T09:20:57.876Z,19.10
2022-10-29T09:23:36.924Z,19.70
2022-10-29T09:26:12.400Z,20.50
2022-10-29T09:29:03.527Z,21.10
2022-10-29T09:31:38.446Z,21.50
2022-10-29T09:34:13.188Z,21.80
2022-10-29T09:36:41.539Z,21.90
2022-10-29T09:39:14.555Z,21.90
2022-10-29T09:41:45.384Z,21.80
2022-10-29T09:44:22.571Z,21.60
2022-10-29T09:47:07.015Z,21.50
2022-10-29T09:49:55.399Z,21.30
2022-10-29T09:52:27.592Z,21.30
2022-10-29T09:54:56.339Z,21.40
2022-10-29T09:57:29.328Z,21.40
2022-10-29T10:00:01.214Z,21.40
2022-10-29T10:02:34.533Z,21.40
2022-10-29T10:05:06.809Z,21.40
2022-10-29T10:07:34.712Z,21.30
2022-10-29T10:10:03.649Z,21.30
2022-10-29T10:12:47.243Z,21.30
2022-10-29T10:15:25.902Z,21.40
2022-10-29T10:18:01.824Z,21.40
2022-10-29T10:20:38.799Z,21.40
2022-10-29T10:23:25.877Z,21.50
2022-10-29T10:25:58.782Z,21.60
2022-10-29T10:28:34.396Z,21.70
2022-10-29T10:31:12.477Z,21.80
2022-10-29T10:33:50.182Z,21.90
2022-10-29T10:36:19.364Z,22.00
2022-10-29T10:38:50.188Z,22.00
2022-10-29T10:41:24.479Z,22.00
2022-10-29T10:43:58.445Z,21.90
2022-10-29T10:46:30.746Z,21.90
2022-10-29T10:49:00.628Z,21.90
2022-10-29T10:51:32.990Z,21.80
2022-10-29T10:54:04.549Z,21.60
2022-10-29T10:56:33.434Z,21.40
2022-10-29T10:59:12.418Z,21.20
2022-10-29T11:01:44.629Z,21.10
2022-10-29T11:04:20.890Z,21.10
2022-10-29T11:06:51.169Z,21.10
2022-10-29T11:09:23.702Z,21.00
2022-10-29T11:11:59.314Z,21.00
2022-10-29T11:14:34.484Z,21.00
2022-10-29T11:17:04.243Z,21.10
2022-10-29T11:19:38.464Z,21.10
2022-10-29T11:22:13.824Z,21.10
2022-10-29T11:24:48.483Z,21.10
2022-10-29T11:27:26.437Z,21.20
2022-10-29T11:30:03.840Z,21.40
2022-10-29T11:32:41.652Z,21.70
2022-10-29T11:35:13.259Z,22.20
2022-10-29T11:37:48.961Z,22.60
2022-10-29T11:40:20.711Z,23.00
2022-10-29T11:42:48.987Z,23.30
2022-10-29T11:45:21.827Z,23.50
2022-10-29T11:48:07.423Z,23.60
2022-10-29T11:50:44.803Z,23.60
2022-10-29T11:53:32.069Z,23.60
2022-10-29T11:56:08.185Z,23.60
2022-10-29T11:58:41.837Z,23.60
2022-10-29T12:01:20.272Z,23.50
2022-10-29T12:04:07.799Z,23.40
2022-10-29T12:06:41.362Z,23.20
2022-10-29T12:09:38.513Z,23.10
2022-10-29T12:12:17.245Z,23.00
2022-10-29T12:14:51.479Z,23.00
2022-10-29T12:17:26.602Z,22.90
2022-10-29T12:20:01.216Z,22.80
2022-10-29T12:22:37.658Z,22.80
2022-10-29T12:25:20.109Z,22.80
2022-10-29T12:27:59.071Z,22.80
2022-10-29T12:30:28.037Z,22.90
2022-10-29T12:33:05.838Z,22.80
2022-10-29T12:35:41.780Z,22.80
2022-10-29T12:38:23.498Z,22.70
2022-10-29T12:40:56.997Z,22.80
2022-10-29T12:43:28.292Z,22.80
2022-10-29T12:46:19.516Z,22.80
2022-10-29T12:48:58.765Z,22.70
2022-10-29T12:51:35.332Z,22.60
2022-10-29T12:54:24.700Z,22.50
2022-10-29T12:56:52.763Z,22.50
2022-10-29T12:59:32.932Z,22.50
2022-10-29T13:02:27.065Z,22.60
2022-10-29T13:05:16.300Z,22.50
2022-10-29T13:08:11.040Z,22.40
2022-10-29T13:10:54.162Z,22.30
2022-10-29T13:13:37.351Z,22.40
2022-10-29T13:16:12.998Z,22.40
2022-10-29T13:18:49.479Z,22.40
2022-10-29T13:21:50.717Z,22.30
2022-10-29T13:24:23.008Z,22.20
2022-10-29T13:27:00.322Z,22.20
2022-10-29T13:29:48.638Z,22.20
2022-10-29T13:32:36.753Z,22.20
2022-10-29T13:35:06.869Z,22.30
2022-10-29T13:37:53.666Z,22.30
2022-10-29T13:40:56.185Z,22.30
2022-10-29T13:43:26.357Z,22.40
2022-10-29T13:46:09.775Z,22.50
2022-10-29T13:48:38.454Z,22.50
2022-10-29T13:51:11.136Z,22.50
2022-10-29T13:53:43.927Z,22.50
2022-10-29T13:56:15.345Z,22.50
2022-10-29T13:58:48.679Z,22.50
2022-10-29T14:01:19.846Z,22.60
2022-10-29T14:03:59.627Z,22.50
2022-10-29T14:06:33.777Z,22.50
2022-10-29T14:09:12.916Z,22.50
2022-10-29T14:11:43.594Z,22.50
2022-10-29T14:14:25.580Z,22.40
2022-10-29T14:17:11.327Z,22.40
2022-10-29T14:19:43.431Z,22.50
2022-10-29T14:22:33.465Z,22.50
2022-10-29T14:25:02.148Z,22.50
2022-10-29T14:27:30.361Z,22.50
2022-10-29T14:30:19.812Z,22.50
2022-10-29T14:32:47.711Z,22.50
2022-10-29T14:35:17.436Z,22.40
2022-10-29T14:37:48.044Z,22.40
2022-10-29T14:40:20.320Z,22.30
2022-10-29T14:42:53.710Z,22.30
2022-10-29T14:45:28.341Z,22.20
2022-10-29T14:48:00.740Z,22.10
2022-10-29T14:50:31.051Z,22.00
2022-10-29T14:53:01.987Z,21.90
2022-10-29T14:55:34.082Z,21.90
2022-10-29T14:58:06.266Z,21.80
2022-10-29T15:00:37.174Z,21.70
2022-10-29T15:03:07.121Z,21.60
2022-10-29T15:05:37.756Z,21.60
2022-10-29T15:08:07.590Z,21.50
2022-10-29T15:10:48.719Z,21.40
2022-10-29T15:13:23.765Z,21.30
2022-10-29T15:16:00.589Z,21.30
2022-10-29T15:18:29.127Z,21.20
2022-10-29T15:20:57.609Z,21.10
2022-10-29T15:23:28.470Z,21.00
2022-10-29T15:26:01.551Z,21.00
2022-10-29T15:28:32.468Z,20.90
2022-10-29T15:31:04.844Z,20.90
2022-10-29T15:33:33.339Z,20.80
2022-10-29T15:36:03.566Z,20.80
2022-10-29T15:39:13.048Z,20.70
2022-10-29T15:41:48.120Z,20.70
2022-10-29T15:44:31.898Z,20.70
2022-10-29T15:47:02.586Z,20.60
2022-10-29T15:49:32.687Z,20.60
2022-10-29T15:52:01.594Z,20.50
2022-10-29T15:54:30.288Z,20.40
2022-10-29T15:56:58.132Z,20.40
2022-10-29T15:59:27.363Z,20.30
2022-10-29T16:01:55.317Z,20.30
2022-10-29T16:04:24.770Z,20.30
2022-10-29T16:06:52.757Z,20.20
2022-10-29T16:09:22.024Z,20.10
2022-10-29T16:11:50.760Z,20.10
2022-10-29T16:14:18.766Z,20.00
2022-10-29T16:16:46.634Z,20.00
2022-10-29T16:19:14.549Z,20.00
2022-10-29T16:21:43.880Z,19.90
2022-10-29T16:24:15.249Z,19.90
2022-10-29T16:26:43.276Z,19.90
2022-10-29T16:29:11.352Z,19.80
2022-10-29T16:31:39.338Z,19.80
2022-10-29T16:34:13.394Z,19.80
2022-10-29T16:36:42.736Z,19.70
2022-10-29T16:39:10.598Z,19.70
2022-10-29T16:41:38.496Z,19.70
2022-10-29T16:44:06.549Z,19.60
2022-10-29T16:46:34.528Z,19.60
2022-10-29T16:49:02.366Z,19.50
2022-10-29T16:51:30.227Z,19.50
2022-10-29T16:54:01.507Z,19.40
2022-10-29T16:56:29.408Z,19.40
2022-10-29T16:59:01.823Z,19.30
2022-10-29T17:01:30.116Z,19.30
2022-10-29T17:03:59.587Z,19.20
2022-10-29T17:06:27.571Z,19.20
2022-10-29T17:08:55.462Z,19.20
2022-10-29T17:11:24.720Z,19.10
2022-10-29T17:13:52.898Z,19.10
2022-10-29T17:16:22.236Z,19.00
2022-10-29T17:18:51.926Z,19.00
2022-10-29T17:21:19.877Z,18.90
2022-10-29T17:23:47.752Z,18.90
2022-10-29T17:26:15.608Z,18.90
2022-10-29T17:28:45.051Z,18.90
2022-10-29T17:31:13.036Z,18.80
2022-10-29T17:33:40.963Z,18.80
2022-10-29T17:36:12.882Z,18.70
2022-10-29T17:38:40.902Z,18.80
2022-10-29T17:41:09.165Z,18.70
2022-10-29T17:43:37.201Z,18.70
2022-10-29T17:46:06.658Z,18.70
2022-10-29T17:48:34.603Z,18.60
2022-10-29T17:51:03.952Z,18.60
2022-10-29T17:53:32.279Z,18.60
2022-10-29T17:56:01.170Z,18.60
2022-10-29T17:58:30.917Z,18.50
2022-10-29T18:01:06.782Z,18.50
2022-10-29T18:03:35.254Z,18.50
2022-10-29T18:06:04.326Z,18.40
2022-10-29T18:08:32.868Z,18.40
2022-10-29T18:11:04.976Z,18.40
2022-10-29T18:13:34.372Z,18.40
2022-10-29T18:16:03.105Z,18.40
2022-10-29T18:18:47.945Z,18.40
2022-10-29T18:21:24.489Z,18.40
2022-10-29T18:23:52.893Z,18.40
2022-10-29T18:26:23.237Z,18.30
2022-10-29T18:28:51.478Z,18.30
2022-10-29T18:31:19.973Z,18.30
2022-10-29T18:33:49.291Z,18.30
2022-10-29T18:36:17.211Z,18.30
2022-10-29T18:38:45.036Z,18.30
2022-10-29T18:41:12.918Z,18.30
2022-10-29T18:43:40.790Z,18.20
2022-10-29T18:46:08.946Z,18.20
2022-10-29T18:48:38.592Z,18.20
2022-10-29T18:51:09.573Z,18.20
2022-10-29T18:53:38.481Z,18.20
2022-10-29T18:56:10.477Z,18.10
2022-10-29T18:58:38.690Z,18.10
2022-10-29T19:01:08.730Z,18.00
2022-10-29T19:03:37.250Z,18.00
2022-10-29T19:06:07.971Z,17.90
2022-10-29T19:08:36.440Z,17.90
2022-10-29T19:11:05.687Z,17.80
2022-10-29T19:13:34.229Z,17.80
2022-10-29T19:16:02.653Z,17.70
2022-10-29T19:18:31.156Z,17.70
2022-10-29T19:21:04.140Z,17.60
2022-10-29T19:23:33.874Z,17.50
2022-10-29T19:26:04.355Z,17.50
2022-10-29T19:28:32.542Z,17.40
2022-10-29T19:31:04.393Z,17.40
2022-10-29T19:33:32.655Z,17.40
2022-10-29T19:36:01.180Z,17.40
2022-10-29T19:38:29.508Z,17.40
2022-10-29T19:40:58.725Z,17.40
2022-10-29T19:43:29.052Z,17.30
2022-10-29T19:45:57.059Z,17.30
2022-10-29T19:48:25.190Z,17.30
2022-10-29T19:50:58.110Z,17.30
2022-10-29T19:53:27.050Z,17.30
2022-10-29T19:55:55.155Z,17.20
2022-10-29T19:58:26.124Z,17.20
2022-10-29T20:00:54.093Z,17.20
2022-10-29T20:03:22.391Z,17.10
2022-10-29T20:05:50.511Z,17.10
2022-10-29T20:08:18.371Z,17.10
2022-10-29T20:10:46.461Z,17.00
2022-10-29T20:13:14.314Z,17.00
2022-10-29T20:15:45.553Z,17.10
2022-10-29T20:18:13.656Z,17.00
2022-10-29T20:20:41.525Z,17.10
2022-10-29T20:23:09.427Z,17.10
2022-10-29T20:25:37.330Z,17.10
2022-10-29T20:28:05.485Z,17.20
2022-10-29T20:30:33.361Z,17.20
2022-10-29T20:33:02.647Z,17.10
2022-10-29T20:35:30.491Z,17.20
2022-10-29T20:37:58.888Z,17.20
2022-10-29T20:40:26.995Z,17.20
2022-10-29T20:42:54.958Z,17.20
2022-10-29T20:45:22.912Z,17.20
2022-10-29T20:47:50.883Z,17.20
2022-10-29T20:50:20.097Z,17.20
2022-10-29T20:52:48.979Z,17.30
2022-10-29T20:55:17.111Z,17.30
2022-10-29T20:57:45.023Z,17.30
2022-10-29T21:00:13.656Z,17.30
2022-10-29T21:02:41.596Z,17.30
2022-10-29T21:05:10.104Z,17.30
2022-10-29T21:07:40.093Z,17.30
2022-10-29T21:10:09.203Z,17.40
2022-10-29T21:12:37.109Z,17.40
2022-10-29T21:15:05.499Z,17.40
2022-10-29T21:17:36.818Z,17.40
2022-10-29T21:20:05.094Z,17.40
2022-10-29T21:22:32.975Z,17.40
2022-10-29T21:25:02.206Z,17.40
2022-10-29T21:27:30.149Z,17.40
2022-10-29T21:29:58.044Z,17.40
2022-10-29T21:32:26.008Z,17.40
2022-10-29T21:34:53.849Z,17.40
2022-10-29T21:37:21.716Z,17.40
2022-10-29T21:39:49.583Z,17.40
2022-10-29T21:42:18.857Z,17.50
2022-10-29T21:44:46.761Z,17.50
2022-10-29T21:47:14.674Z,17.50
2022-10-29T21:49:44.189Z,17.50
2022-10-29T21:52:14.815Z,17.50
2022-10-29T21:54:42.718Z,17.50
2022-10-29T21:57:10.562Z,17.50
2022-10-29T21:59:39.938Z,17.50
2022-10-29T22:02:07.957Z,17.50
2022-10-29T22:04:35.866Z,17.50
2022-10-29T22:07:03.779Z,17.50
2022-10-29T22:09:31.637Z,17.50
2022-10-29T22:11:59.759Z,17.50
2022-10-29T22:14:27.634Z,17.50
2022-10-29T22:16:57.734Z,17.50
2022-10-29T22:19:25.752Z,17.50
2022-10-29T22:21:55.632Z,17.40
2022-10-29T22:24:23.549Z,17.50
2022-10-29T22:26:52.565Z,17.40
2022-10-29T22:29:20.425Z,17.40
2022-10-29T22:31:48.246Z,17.40
2022-10-29T22:34:17.513Z,17.40
2022-10-29T22:36:45.388Z,17.40
2022-10-29T22:39:13.248Z,17.30
2022-10-29T22:41:41.090Z,17.30
2022-10-29T22:44:08.951Z,17.30
2022-10-29T22:46:37.160Z,17.30
2022-10-29T22:49:05.075Z,17.30
2022-10-29T22:51:34.756Z,17.30
2022-10-29T22:54:03.082Z,17.30
2022-10-29T22:56:33.210Z,17.30
2022-10-29T22:59:01.249Z,17.30
2022-10-29T23:01:31.002Z,17.30
2022-10-29T23:03:59.362Z,17.30
2022-10-29T23:06:27.624Z,17.30
2022-10-29T23:08:59.192Z,17.20
2022-10-29T23:11:31.108Z,17.20
2022-10-29T23:14:00.671Z,17.30
2022-10-29T23:16:30.039Z,17.30
2022-10-29T23:18:59.465Z,17.20
2022-10-29T23:21:27.481Z,17.30
2022-10-29T23:23:56.806Z,17.20
2022-10-29T23:26:25.670Z,17.30
2022-10-29T23:28:53.528Z,17.30
2022-10-29T23:31:23.760Z,17.30
2022-10-29T23:33:54.054Z,17.30
2022-10-29T23:36:23.766Z,17.30
2022-10-29T23:38:56.883Z,17.30
2022-10-29T23:41:25.224Z,17.30
2022-10-29T23:43:53.162Z,17.30
2022-10-29T23:46:21.315Z,17.30
2022-10-29T23:48:49.271Z,17.30
2022-10-29T23:51:17.150Z,17.30
2022-10-29T23:53:45.138Z,17.30
2022-10-29T23:56:14.311Z,17.30
2022-10-29T23:58:42.129Z,17.30
